Terminal Aerodrome Forecast
Issued by NWS

Home | Current Version | Previous Version | Text Only | Print | Product List | Glossary On
Versions: 1 2 3 4 5 6 7 8 9 10 11 12
000
FTUS41 KLWX 201700
TAFMTN
TAF
KMTN 201737Z 2018/2118 16007KT P6SM SCT050
     FM202000 17008KT P6SM BKN050
     FM202200 17008KT P6SM VCTS BKN050CB
     FM210000 16007KT P6SM BKN050
     FM211000 VRB03KT P6SM SCT008 BKN050=

USA.gov is the U.S. government's official web portal to all federal, state and local government web resources and services.